Saturday, November 22, 2014
23:48 UTC
  |  Log In   |  Register Free
Airport Search:

Carmi Municipal Airport
(KCUL)

Carmi Municipal Airport Diagram
No Airport Diagram Available

FAA data valid effective November 13, 2014 - January 08, 2015 (unless otherwise noted).

 
 
 
 
 
 
 
 
 
 
 
 
 
 

Current Aviation Weather for Carmi Municipal Airport (KCUL)

The most recent METAR observation for KCUL was updated at: 2316
METAR Summary (Translated METAR)
KCUL
222255Z AUTO 18007KT 10SM CLR 14/07 A3002 RMK AO2 T01360068
KFWC
222255Z AUTO 18005KT 10SM SCT060 BKN100 13/07 A3001 RMK AO1 T01330065
(22.1 nm NW from KCUL)
KHSB
222255Z AUTO 19007KT 10SM SCT100 16/05 A3004 RMK AO2 T01570046
(26.2 nm SW from KCUL)
TAF
No TAF information found within 50 nm of KCUL
  Airport Weather Conditions for KCUL

 Current Weather at CUL
59° F
Mostly Cloudy
South winds at 6.9 mph
CUL NOAA Radar

Pressure: 30.03 in
Humidity: 60%
Wind: South at 6.9 MPH (6 KT)
Dew Point: 45.1°F
Visibility: 10.00 mi


Airport Weather Forecast for KCUL

Translated METAR and TAF for KCUL
Translated METAR for KCUL (2343 UTC 22 November 2014)
found at http://aviationweather.gov/adds/metars/
 
METAR text: KCUL 222335Z AUTO 15006KT 10SM CLR 13/07 A3002 RMK AO2 T01260069
Conditions at: KCUL (CARMI MUNI , IL, US) observed 2335 UTC 22 November 2014
Temperature: 12.6°C (55°F)
Dewpoint: 6.9°C (44°F) [RH = 68%]
Pressure (altimeter): 30.02 inches Hg (1016.7 mb)
Winds: from the SSE (150 degrees) at 7 MPH (6 knots; 3.1 m/s)
Visibility: 10 or more miles (16+ km)
Ceiling: at least 12,000 feet AGL
Clouds: sky clear below 12,000 feet AGL
Weather: automated observation with no human augmentation;
there may or may not be significant weather present at this time
Translated TAF for KCUL

There is no translated TAF available for this airport

Find All Airport Services Find A Hotel Find A Rental Car Find A Golf Course Find A Restaurant $100 Hamburger



FBO's on the Field
FBO Company Facility Photos Services Transportation Aviation Fuel Prices: Prices include tax
Catering Weather Repair Courtesy Rental Type 100LL JetA JetA+ MOGAS 8087
 
Carmi Municipal Airport

This FBO has not yet been rated
FS:Shell
Last Updated: Nov-18
Login to update fuel prices
SS:
Contact Carmi Municipal AirportMore FBO Information
 
Carmi Municipal Airport

This FBO has not yet been rated
FS:Shell
Last Updated: Nov-14
Login to update fuel prices
SS:
Contact Carmi Municipal AirportMore FBO Information
 
Add another FBO Facility Photos Catering Weather Repair Courtesy Rental Type 100LL JetA JetA+ MOGAS 8087
Services Transportation Aviation Fuel Prices: Prices include tax


model-print
model-print
model-print
model-print